createdAt,value
2024-04-25T00:01:30.005Z,80.81
2024-04-25T00:03:56.834Z,81.69
2024-04-25T00:06:23.653Z,80.79
2024-04-25T00:08:50.286Z,81.49
2024-04-25T00:11:19.097Z,80.90
2024-04-25T00:13:45.655Z,81.18
2024-04-25T00:16:12.334Z,80.73
2024-04-25T00:18:38.934Z,80.97
2024-04-25T00:21:05.860Z,81.64
2024-04-25T00:23:32.593Z,81.67
2024-04-25T00:25:59.516Z,81.31
2024-04-25T00:28:26.034Z,81.45
2024-04-25T00:30:52.772Z,81.35
2024-04-25T00:33:19.744Z,81.28
2024-04-25T00:35:48.086Z,81.75
2024-04-25T00:38:14.642Z,81.53
2024-04-25T00:40:41.489Z,81.35
2024-04-25T00:43:08.043Z,82.08
2024-04-25T00:45:34.811Z,80.98
2024-04-25T00:48:05.312Z,81.62
2024-04-25T00:50:34.834Z,81.42
2024-04-25T00:53:01.648Z,81.26
2024-04-25T00:55:28.835Z,80.99
2024-04-25T00:57:57.208Z,81.66
2024-04-25T01:00:25.415Z,81.59
2024-04-25T01:02:55.185Z,81.60
2024-04-25T01:05:25.068Z,81.66
2024-04-25T01:07:51.815Z,80.99
2024-04-25T01:10:18.730Z,81.15
2024-04-25T01:12:45.404Z,81.42
2024-04-25T01:17:55.991Z,81.31
2024-04-25T01:20:22.735Z,81.47
2024-04-25T01:22:50.502Z,81.30
2024-04-25T01:25:19.036Z,81.45
2024-04-25T01:27:45.821Z,81.81
2024-04-25T01:30:13.244Z,81.10
2024-04-25T01:32:40.776Z,81.29
2024-04-25T01:35:09.054Z,81.73
2024-04-25T01:37:36.048Z,82.09
2024-04-25T01:40:02.933Z,81.92
2024-04-25T01:42:30.483Z,81.44
2024-04-25T01:44:57.270Z,81.60
2024-04-25T01:47:23.879Z,81.56
2024-04-25T01:49:50.591Z,81.87
2024-04-25T01:52:17.212Z,81.78
2024-04-25T01:54:43.884Z,82.19
2024-04-25T01:57:10.420Z,81.41
2024-04-25T01:59:37.164Z,81.22
2024-04-25T02:02:03.979Z,82.48
2024-04-25T02:04:30.672Z,82.20
2024-04-25T02:06:57.213Z,82.03
2024-04-25T02:09:23.812Z,82.24
2024-04-25T02:11:50.539Z,81.21
2024-04-25T02:14:17.435Z,82.35
2024-04-25T02:16:43.955Z,82.26
2024-04-25T02:19:10.563Z,82.06
2024-04-25T02:21:55.794Z,82.06
2024-04-25T02:24:41.057Z,81.83
2024-04-25T02:27:07.855Z,81.98
2024-04-25T02:29:34.869Z,81.90
2024-04-25T02:32:01.434Z,81.73
2024-04-25T02:34:28.175Z,81.59
2024-04-25T02:36:55.007Z,82.38
2024-04-25T02:39:21.681Z,82.15
2024-04-25T02:41:48.363Z,82.09
2024-04-25T02:44:15.006Z,81.88
2024-04-25T02:46:41.548Z,82.15
2024-04-25T02:49:09.089Z,82.54
2024-04-25T02:51:35.772Z,82.13
2024-04-25T02:54:02.299Z,82.07
2024-04-25T02:56:28.863Z,81.77
2024-04-25T02:58:55.444Z,82.32
2024-04-25T03:01:22.135Z,82.00
2024-04-25T03:03:48.787Z,82.01
2024-04-25T03:06:15.465Z,81.73
2024-04-25T03:08:42.075Z,81.96
2024-04-25T03:11:08.684Z,81.49
2024-04-25T03:13:38.178Z,81.96
2024-04-25T03:16:06.824Z,81.65
2024-04-25T03:18:34.474Z,82.48
2024-04-25T03:21:05.507Z,82.35
2024-04-25T03:23:36.866Z,81.70
2024-04-25T03:26:04.847Z,81.68
2024-04-25T03:28:33.027Z,81.77
2024-04-25T03:30:59.688Z,81.83
2024-04-25T03:33:27.039Z,81.88
2024-04-25T03:35:54.021Z,81.65
2024-04-25T03:38:20.680Z,82.03
2024-04-25T03:40:47.458Z,82.30
2024-04-25T03:43:14.091Z,82.35
2024-04-25T03:45:40.775Z,82.25
2024-04-25T03:48:07.793Z,82.01
2024-04-25T03:50:34.743Z,81.74
2024-04-25T03:53:01.347Z,81.57
2024-04-25T03:55:27.980Z,81.08
2024-04-25T03:57:54.687Z,82.51
2024-04-25T04:00:21.450Z,82.57
2024-04-25T04:02:48.502Z,82.48
2024-04-25T04:05:16.176Z,82.55
2024-04-25T04:07:43.674Z,82.38
2024-04-25T04:10:10.393Z,81.60
2024-04-25T04:12:36.927Z,82.91
2024-04-25T04:15:04.051Z,81.92
2024-04-25T04:17:31.516Z,82.65
2024-04-25T04:19:59.174Z,81.74
2024-04-25T04:22:26.207Z,82.59
2024-04-25T04:24:52.733Z,82.15
2024-04-25T04:27:19.437Z,81.94
2024-04-25T04:29:46.298Z,82.40
2024-04-25T04:32:12.926Z,82.80
2024-04-25T04:34:39.645Z,82.26
2024-04-25T04:37:06.209Z,81.98
2024-04-25T04:39:32.948Z,82.57
2024-04-25T04:41:59.467Z,81.96
2024-04-25T04:44:26.179Z,82.54
2024-04-25T04:46:52.740Z,82.10
2024-04-25T04:49:19.355Z,82.46
2024-04-25T04:51:45.959Z,82.33
2024-04-25T04:54:13.429Z,81.79
2024-04-25T04:56:40.960Z,82.43
2024-04-25T04:59:07.807Z,82.49
2024-04-25T05:01:35.560Z,82.62
2024-04-25T05:04:02.326Z,81.81
2024-04-25T05:06:28.884Z,82.33
2024-04-25T05:08:55.420Z,81.74
2024-04-25T05:11:22.447Z,82.07
2024-04-25T05:13:49.089Z,81.91
2024-04-25T05:16:15.783Z,82.51
2024-04-25T05:18:42.496Z,82.19
2024-04-25T05:21:09.053Z,82.53
2024-04-25T05:23:35.649Z,82.53
2024-04-25T05:26:02.231Z,82.43
2024-04-25T05:28:28.866Z,81.89
2024-04-25T05:30:55.533Z,82.24
2024-04-25T05:33:22.268Z,82.36
2024-04-25T05:35:51.582Z,81.84
2024-04-25T05:38:18.585Z,82.31
2024-04-25T05:40:45.177Z,82.34
2024-04-25T05:43:14.064Z,81.99
2024-04-25T05:45:41.105Z,81.81
2024-04-25T05:48:08.073Z,81.73
2024-04-25T05:50:34.903Z,82.27
2024-04-25T05:53:03.680Z,82.27
2024-04-25T05:55:30.457Z,82.27
2024-04-25T05:57:56.974Z,81.79
2024-04-25T06:00:23.517Z,81.38
2024-04-25T06:02:50.435Z,81.28
2024-04-25T06:05:17.154Z,81.76
2024-04-25T06:07:43.779Z,81.75
2024-04-25T06:10:10.982Z,81.90
2024-04-25T06:12:37.783Z,81.26
2024-04-25T06:15:04.865Z,82.02
2024-04-25T06:17:31.675Z,81.54
2024-04-25T06:19:59.076Z,81.68
2024-04-25T06:22:25.959Z,81.31
2024-04-25T06:24:52.535Z,81.77
2024-04-25T06:27:19.115Z,82.08
2024-04-25T06:29:45.691Z,81.52
2024-04-25T06:32:12.349Z,81.01
2024-04-25T06:34:38.979Z,80.86
2024-04-25T06:37:09.065Z,81.27
2024-04-25T06:39:35.610Z,80.79
2024-04-25T06:42:02.465Z,81.75
2024-04-25T06:44:35.001Z,81.24
2024-04-25T06:47:07.535Z,81.05
2024-04-25T06:49:34.477Z,81.50
2024-04-25T06:52:02.728Z,80.50
2024-04-25T06:54:30.388Z,81.47
2024-04-25T06:56:57.413Z,80.95
2024-04-25T06:59:24.031Z,80.85
2024-04-25T07:01:51.561Z,81.00
2024-04-25T07:04:18.582Z,80.41
2024-04-25T07:06:45.222Z,81.02
2024-04-25T07:09:11.970Z,81.71
2024-04-25T07:11:38.685Z,80.39
2024-04-25T07:14:05.482Z,80.43
2024-04-25T07:16:32.026Z,81.06
2024-04-25T07:18:58.737Z,81.32
2024-04-25T07:21:28.333Z,80.88
2024-04-25T07:24:00.130Z,80.66
2024-04-25T07:26:28.342Z,80.91
2024-04-25T07:28:56.598Z,80.90
2024-04-25T07:31:23.336Z,80.87
2024-04-25T07:33:50.257Z,80.77
2024-04-25T07:36:23.528Z,81.44
2024-04-25T07:38:50.778Z,80.58
2024-04-25T07:41:17.549Z,81.15
2024-04-25T07:43:44.226Z,80.90
2024-04-25T07:46:11.043Z,81.55
2024-04-25T07:48:37.751Z,80.21
2024-04-25T07:51:04.832Z,80.77
2024-04-25T07:53:32.007Z,80.69
2024-04-25T07:55:58.653Z,81.00
2024-04-25T07:58:25.329Z,80.97
2024-04-25T08:00:51.957Z,80.77
2024-04-25T08:03:20.056Z,80.73
2024-04-25T08:05:47.570Z,80.72
2024-04-25T08:08:15.754Z,80.59
2024-04-25T08:10:42.423Z,80.85
2024-04-25T08:13:10.267Z,80.93
2024-04-25T08:15:38.971Z,81.18
2024-04-25T08:18:06.127Z,81.30
2024-04-25T08:20:34.160Z,81.39
2024-04-25T08:23:01.902Z,80.59
2024-04-25T08:25:28.443Z,81.24
2024-04-25T08:27:56.726Z,80.38
2024-04-25T08:30:25.770Z,79.83
2024-04-25T08:32:54.154Z,79.90
2024-04-25T08:35:20.983Z,80.29
2024-04-25T08:37:48.012Z,80.14
2024-04-25T08:40:14.795Z,79.61
2024-04-25T08:42:44.348Z,79.96
2024-04-25T08:45:11.659Z,79.98
2024-04-25T08:47:40.382Z,80.16
2024-04-25T08:50:08.123Z,80.05
2024-04-25T08:52:38.515Z,79.63
2024-04-25T08:55:07.514Z,79.46
2024-04-25T08:57:34.172Z,80.14
2024-04-25T09:00:00.785Z,79.17
2024-04-25T09:02:27.959Z,79.25
2024-04-25T09:04:55.849Z,79.21
2024-04-25T09:07:22.752Z,79.14
2024-04-25T09:09:49.295Z,78.87
2024-04-25T09:12:16.044Z,78.63
2024-04-25T09:14:42.772Z,77.97
2024-04-25T09:17:16.487Z,76.94
2024-04-25T09:19:43.815Z,76.85
2024-04-25T09:22:13.771Z,77.47
2024-04-25T09:24:40.537Z,77.30
2024-04-25T09:27:08.167Z,76.65
2024-04-25T09:29:35.816Z,76.98
2024-04-25T09:32:03.976Z,77.43
2024-04-25T09:34:30.941Z,77.60
2024-04-25T09:36:57.473Z,76.57
2024-04-25T09:39:24.809Z,77.60
2024-04-25T09:41:52.447Z,75.88
2024-04-25T09:44:19.621Z,77.08
2024-04-25T09:47:03.370Z,76.68
2024-04-25T09:49:36.415Z,75.58
2024-04-25T09:52:19.060Z,76.56
2024-04-25T09:54:48.495Z,76.45
2024-04-25T09:57:20.443Z,76.42
2024-04-25T09:59:55.242Z,77.16
2024-04-25T10:02:24.261Z,77.26
2024-04-25T10:04:51.471Z,76.04
2024-04-25T10:07:20.473Z,76.21
2024-04-25T10:09:49.715Z,76.01
2024-04-25T10:12:27.318Z,75.75
2024-04-25T10:15:01.582Z,75.00
2024-04-25T10:17:30.793Z,74.48
2024-04-25T10:20:00.295Z,74.26
2024-04-25T10:22:28.105Z,73.57
2024-04-25T10:25:02.577Z,73.05
2024-04-25T10:27:31.140Z,74.29
2024-04-25T10:30:04.230Z,72.36
2024-04-25T10:32:31.201Z,72.43
2024-04-25T10:34:58.339Z,72.06
2024-04-25T10:37:24.952Z,72.45
2024-04-25T10:39:51.548Z,72.75
2024-04-25T10:42:19.011Z,72.95
2024-04-25T10:44:49.776Z,73.08
2024-04-25T10:47:17.397Z,73.38
2024-04-25T10:49:44.558Z,73.61
2024-04-25T10:52:11.372Z,72.30
2024-04-25T10:54:38.310Z,72.23
2024-04-25T10:57:05.078Z,71.63
2024-04-25T10:59:32.463Z,70.90
2024-04-25T11:02:04.041Z,70.87
2024-04-25T11:04:35.466Z,70.59
2024-04-25T11:07:05.809Z,69.42
2024-04-25T11:09:34.913Z,69.97
2024-04-25T11:12:02.085Z,69.13
2024-04-25T11:14:28.717Z,68.53
2024-04-25T11:16:55.895Z,68.30
2024-04-25T11:19:26.819Z,68.52
2024-04-25T11:21:54.452Z,69.03
2024-04-25T11:24:23.209Z,69.36
2024-04-25T11:26:51.197Z,67.97
2024-04-25T11:29:18.261Z,67.42
2024-04-25T11:31:45.762Z,66.60
2024-04-25T11:34:20.051Z,66.68
2024-04-25T11:36:57.840Z,67.55
2024-04-25T11:39:24.479Z,66.64
2024-04-25T11:41:51.149Z,66.25
2024-04-25T11:44:18.000Z,66.43
2024-04-25T11:46:44.610Z,66.12
2024-04-25T11:49:11.235Z,65.08
2024-04-25T11:51:37.900Z,64.87
2024-04-25T11:54:04.520Z,62.84
2024-04-25T11:56:31.389Z,63.46
2024-04-25T11:58:58.338Z,63.59
2024-04-25T12:01:24.933Z,62.29
2024-04-25T12:03:51.829Z,62.57
2024-04-25T12:06:20.264Z,62.72
2024-04-25T12:08:47.110Z,62.27
2024-04-25T12:11:13.760Z,61.83
2024-04-25T12:13:40.402Z,61.48
2024-04-25T12:16:07.035Z,62.20
2024-04-25T12:18:33.907Z,61.51
2024-04-25T12:21:02.434Z,60.73
2024-04-25T12:23:29.175Z,60.58
2024-04-25T12:25:55.822Z,60.61
2024-04-25T12:28:22.549Z,59.61
2024-04-25T12:30:51.055Z,59.41
2024-04-25T12:33:18.099Z,60.84
2024-04-25T12:35:45.018Z,60.10
2024-04-25T12:38:11.803Z,60.77
2024-04-25T12:40:38.371Z,61.20
2024-04-25T12:43:06.052Z,61.18
2024-04-25T12:45:37.627Z,59.72
2024-04-25T12:48:06.398Z,61.12
2024-04-25T12:50:33.463Z,60.20
2024-04-25T12:53:00.292Z,59.91
2024-04-25T12:55:27.029Z,60.58
2024-04-25T12:57:56.170Z,60.33
2024-04-25T13:00:23.655Z,60.00
2024-04-25T13:02:50.684Z,60.06
2024-04-25T13:05:18.041Z,59.40
2024-04-25T13:07:45.511Z,59.76
2024-04-25T13:10:12.075Z,59.71
2024-04-25T13:12:41.386Z,59.70
2024-04-25T13:15:08.246Z,59.71
2024-04-25T13:17:38.035Z,59.53
2024-04-25T13:20:06.275Z,59.40
2024-04-25T13:22:32.992Z,58.73
2024-04-25T13:24:59.575Z,58.29
2024-04-25T13:27:28.320Z,58.72
2024-04-25T13:29:54.851Z,58.87
2024-04-25T13:32:22.525Z,58.34
2024-04-25T13:34:51.097Z,58.01
2024-04-25T13:37:17.666Z,56.71
2024-04-25T13:39:46.186Z,57.86
2024-04-25T13:42:14.222Z,57.17
2024-04-25T13:44:41.001Z,56.34
2024-04-25T13:47:07.541Z,56.11
2024-04-25T13:49:34.183Z,56.58
2024-04-25T13:52:00.781Z,54.92
2024-04-25T13:54:27.373Z,54.27
2024-04-25T13:56:54.080Z,55.18
2024-04-25T13:59:22.275Z,55.43
2024-04-25T14:01:52.061Z,55.08
2024-04-25T14:04:18.843Z,54.78
2024-04-25T14:06:46.479Z,55.60
2024-04-25T14:09:13.131Z,55.55
2024-04-25T14:11:41.671Z,54.67
2024-04-25T14:14:10.233Z,55.03
2024-04-25T14:16:36.892Z,54.59
2024-04-25T14:19:03.541Z,53.62
2024-04-25T14:21:30.066Z,53.94
2024-04-25T14:23:56.768Z,53.28
2024-04-25T14:26:42.346Z,52.54
2024-04-25T14:29:09.099Z,53.30
2024-04-25T14:31:35.652Z,53.88
2024-04-25T14:34:02.534Z,53.85
2024-04-25T14:36:29.259Z,53.70
2024-04-25T14:38:55.894Z,53.00
2024-04-25T14:41:22.877Z,54.29
2024-04-25T14:43:54.959Z,54.08
2024-04-25T14:46:24.911Z,53.68
2024-04-25T14:48:51.710Z,54.82
2024-04-25T14:51:18.367Z,54.46
2024-04-25T14:53:46.646Z,55.17
2024-04-25T14:56:13.508Z,54.01
2024-04-25T14:58:40.094Z,54.94
2024-04-25T15:01:06.674Z,55.34
2024-04-25T15:03:34.754Z,53.56
2024-04-25T15:06:01.554Z,53.59
2024-04-25T15:08:28.213Z,53.25
2024-04-25T15:10:54.729Z,53.26
2024-04-25T15:13:22.444Z,53.08
2024-04-25T15:15:52.760Z,53.90
2024-04-25T15:18:19.523Z,53.84
2024-04-25T15:20:46.278Z,52.68
2024-04-25T15:23:13.561Z,53.79
2024-04-25T15:25:40.402Z,53.14
2024-04-25T15:28:06.937Z,54.03
2024-04-25T15:30:35.065Z,53.05
2024-04-25T15:33:01.727Z,53.26
2024-04-25T15:35:28.379Z,52.72
2024-04-25T15:37:55.005Z,53.27
2024-04-25T15:40:21.664Z,53.00
2024-04-25T15:42:49.741Z,53.65
2024-04-25T15:45:16.653Z,53.01
2024-04-25T15:47:43.370Z,53.49
2024-04-25T15:50:10.472Z,54.04
2024-04-25T15:52:37.136Z,54.29
2024-04-25T15:55:04.200Z,53.59
2024-04-25T15:57:31.050Z,54.59
2024-04-25T15:59:57.584Z,54.88
2024-04-25T16:02:24.592Z,55.13
2024-04-25T16:04:52.199Z,54.32
2024-04-25T16:07:19.066Z,55.11
2024-04-25T16:09:49.805Z,54.90
2024-04-25T16:12:16.581Z,55.63
2024-04-25T16:14:43.240Z,55.62
2024-04-25T16:17:09.858Z,54.70
2024-04-25T16:19:36.671Z,54.56
2024-04-25T16:22:03.454Z,55.63
2024-04-25T16:24:30.165Z,54.16
2024-04-25T16:26:56.938Z,55.45
2024-04-25T16:29:25.813Z,54.94
2024-04-25T16:31:53.322Z,54.68
2024-04-25T16:34:20.280Z,54.18
2024-04-25T16:36:46.969Z,54.03
2024-04-25T16:39:13.509Z,54.33
2024-04-25T16:41:40.196Z,55.02
2024-04-25T16:44:06.792Z,53.52
2024-04-25T16:46:33.472Z,54.06
2024-04-25T16:49:00.161Z,53.44
2024-04-25T16:51:29.635Z,53.05
2024-04-25T16:53:56.376Z,53.51
2024-04-25T16:56:23.090Z,54.32
2024-04-25T16:58:50.804Z,54.96
2024-04-25T17:01:18.124Z,55.47
2024-04-25T17:03:45.259Z,54.29
2024-04-25T17:06:12.080Z,54.78
2024-04-25T17:08:38.666Z,55.71
2024-04-25T17:11:05.492Z,55.29
2024-04-25T17:13:32.126Z,55.83
2024-04-25T17:15:58.674Z,55.78
2024-04-25T17:18:25.494Z,55.60
2024-04-25T17:20:52.326Z,55.59
2024-04-25T17:23:22.049Z,56.04
2024-04-25T17:25:48.954Z,56.42
2024-04-25T17:28:15.614Z,55.35
2024-04-25T17:30:42.326Z,55.87
2024-04-25T17:33:09.178Z,55.47
2024-04-25T17:35:35.810Z,56.39
2024-04-25T17:38:02.619Z,55.42
2024-04-25T17:40:29.423Z,55.67
2024-04-25T17:42:55.939Z,55.32
2024-04-25T17:45:22.700Z,54.93
2024-04-25T17:47:49.510Z,54.67
2024-04-25T17:50:16.401Z,55.81
2024-04-25T17:52:43.076Z,54.19
2024-04-25T17:55:12.400Z,54.98
2024-04-25T17:57:43.749Z,54.75
2024-04-25T18:00:11.775Z,54.97
2024-04-25T18:02:40.138Z,55.63
2024-04-25T18:05:07.024Z,54.98
2024-04-25T18:07:37.069Z,55.29
2024-04-25T18:10:05.866Z,54.63
2024-04-25T18:12:32.603Z,54.61
2024-04-25T18:14:59.261Z,54.98
2024-04-25T18:17:26.642Z,54.89
2024-04-25T18:19:54.152Z,54.96
2024-04-25T18:22:25.218Z,55.14
2024-04-25T18:24:52.911Z,54.26
2024-04-25T18:27:20.150Z,54.35
2024-04-25T18:29:47.194Z,55.32
2024-04-25T18:32:14.113Z,55.78
2024-04-25T18:34:41.306Z,54.96
2024-04-25T18:37:10.059Z,54.98
2024-04-25T18:39:37.048Z,54.42
2024-04-25T18:42:06.887Z,54.52
2024-04-25T18:44:35.568Z,55.69
2024-04-25T18:47:02.138Z,55.40
2024-04-25T18:49:31.309Z,56.24
2024-04-25T18:51:59.985Z,55.28
2024-04-25T18:54:27.391Z,55.55
2024-04-25T18:56:54.636Z,56.23
2024-04-25T18:59:21.779Z,55.48
2024-04-25T19:01:48.448Z,56.28
2024-04-25T19:04:16.429Z,55.89
2024-04-25T19:06:43.086Z,56.94
2024-04-25T19:09:12.506Z,57.18
2024-04-25T19:11:40.711Z,58.10
2024-04-25T19:14:08.932Z,57.74
2024-04-25T19:16:35.686Z,58.07
2024-04-25T19:19:02.505Z,57.85
2024-04-25T19:21:39.576Z,58.65
2024-04-25T19:24:09.364Z,58.49
2024-04-25T19:26:37.154Z,58.46
2024-04-25T19:29:03.890Z,58.17
2024-04-25T19:31:30.607Z,58.14
2024-04-25T19:34:03.180Z,58.21
2024-04-25T19:36:29.868Z,59.17
2024-04-25T19:38:56.571Z,59.10
2024-04-25T19:41:23.529Z,59.29
2024-04-25T19:43:50.148Z,59.61
2024-04-25T19:46:16.678Z,60.30
2024-04-25T19:48:43.707Z,59.59
2024-04-25T19:51:10.489Z,60.65
2024-04-25T19:53:40.003Z,60.39
2024-04-25T19:56:11.570Z,60.53
2024-04-25T19:58:38.140Z,61.15
2024-04-25T20:01:09.049Z,60.82
2024-04-25T20:03:35.823Z,60.70
2024-04-25T20:06:02.682Z,61.37
2024-04-25T20:08:29.522Z,62.25
2024-04-25T20:10:56.086Z,61.64
2024-04-25T20:13:22.868Z,62.39
2024-04-25T20:15:49.699Z,62.91
2024-04-25T20:18:35.193Z,62.43
2024-04-25T20:21:06.261Z,62.55
2024-04-25T20:23:37.565Z,62.79
2024-04-25T20:26:11.604Z,63.05
2024-04-25T20:28:39.588Z,63.38
2024-04-25T20:31:08.554Z,63.07
2024-04-25T20:33:35.521Z,63.82
2024-04-25T20:36:06.161Z,64.34
2024-04-25T20:38:33.170Z,64.58
2024-04-25T20:40:59.727Z,63.93
2024-04-25T20:43:26.262Z,63.77
2024-04-25T20:45:52.877Z,65.13
2024-04-25T20:48:19.801Z,65.04
2024-04-25T20:50:46.464Z,64.71
2024-04-25T20:53:15.943Z,65.16
2024-04-25T20:55:42.504Z,64.92
2024-04-25T20:58:09.006Z,65.37
2024-04-25T21:00:36.338Z,65.58
2024-04-25T21:03:03.090Z,65.68
2024-04-25T21:05:29.711Z,66.33
2024-04-25T21:07:56.382Z,66.70
2024-04-25T21:10:22.944Z,66.26
2024-04-25T21:12:49.670Z,66.53
2024-04-25T21:15:16.385Z,66.29
2024-04-25T21:17:44.786Z,66.10
2024-04-25T21:20:12.301Z,66.25
2024-04-25T21:22:40.732Z,67.14
2024-04-25T21:25:07.579Z,66.68
2024-04-25T21:27:34.161Z,67.01
2024-04-25T21:30:00.927Z,66.93
2024-04-25T21:32:36.223Z,66.04
2024-04-25T21:35:09.804Z,67.42
2024-04-25T21:37:36.433Z,66.86
2024-04-25T21:40:03.207Z,66.58
2024-04-25T21:42:48.634Z,67.34
2024-04-25T21:45:15.260Z,67.20
2024-04-25T21:47:41.910Z,66.76
2024-04-25T21:50:08.608Z,67.50
2024-04-25T21:52:35.186Z,68.20
2024-04-25T21:55:01.795Z,67.50
2024-04-25T21:57:28.446Z,67.91
2024-04-25T21:59:55.727Z,67.69
2024-04-25T22:02:22.363Z,67.90
2024-04-25T22:04:49.048Z,67.56
2024-04-25T22:07:15.868Z,67.47
2024-04-25T22:09:42.579Z,68.61
2024-04-25T22:12:11.746Z,68.08
2024-04-25T22:14:39.073Z,68.33
2024-04-25T22:17:05.752Z,67.94
2024-04-25T22:19:32.470Z,67.88
2024-04-25T22:21:59.133Z,68.47
2024-04-25T22:24:25.902Z,69.07
2024-04-25T22:26:52.760Z,68.81
2024-04-25T22:29:19.432Z,69.22
2024-04-25T22:31:46.126Z,69.18
2024-04-25T22:34:12.826Z,68.97
2024-04-25T22:36:39.343Z,69.08
2024-04-25T22:39:06.159Z,69.70
2024-04-25T22:41:32.801Z,68.86
2024-04-25T22:43:59.444Z,69.30
2024-04-25T22:46:26.058Z,69.94
2024-04-25T22:48:52.750Z,68.81
2024-04-25T22:51:19.420Z,69.85
2024-04-25T22:53:46.102Z,69.43
2024-04-25T22:56:12.835Z,69.02
2024-04-25T22:58:39.520Z,68.71
2024-04-25T23:01:06.214Z,69.33
2024-04-25T23:03:32.820Z,68.98
2024-04-25T23:05:59.504Z,69.02
2024-04-25T23:08:26.565Z,68.69
2024-04-25T23:10:53.334Z,69.02
2024-04-25T23:13:19.931Z,69.21
2024-04-25T23:15:46.650Z,68.86
2024-04-25T23:18:13.652Z,68.29
2024-04-25T23:20:40.551Z,68.15
2024-04-25T23:23:07.266Z,67.98
2024-04-25T23:25:33.902Z,67.69
2024-04-25T23:28:00.485Z,68.94
2024-04-25T23:30:27.293Z,68.35
2024-04-25T23:32:54.084Z,68.34
2024-04-25T23:35:20.798Z,68.61
2024-04-25T23:37:47.654Z,67.87
2024-04-25T23:40:14.357Z,67.95
2024-04-25T23:42:41.452Z,68.50
2024-04-25T23:45:08.343Z,67.31
2024-04-25T23:47:35.160Z,68.37
2024-04-25T23:50:01.906Z,68.74
2024-04-25T23:52:28.590Z,68.57
2024-04-25T23:54:55.186Z,68.23
2024-04-25T23:57:21.849Z,68.83
2024-04-25T23:59:48.522Z,69.37
